sensor_id;sensor_type;location;lat;lon;timestamp;P1;durP1;ratioP1;P2;durP2;ratioP2
67037;SDS011;53940;53.204;6.590;2022-10-29T00:00:07;1.63;;;0.88;;
67037;SDS011;53940;53.204;6.590;2022-10-29T00:03:08;1.52;;;0.90;;
67037;SDS011;53940;53.204;6.590;2022-10-29T00:06:09;1.50;;;0.88;;
67037;SDS011;53940;53.204;6.590;2022-10-29T00:09:11;1.88;;;1.00;;
67037;SDS011;53940;53.204;6.590;2022-10-29T00:12:11;1.83;;;0.88;;
67037;SDS011;53940;53.204;6.590;2022-10-29T00:15:12;1.75;;;0.90;;
67037;SDS011;53940;53.204;6.590;2022-10-29T00:18:12;1.58;;;0.80;;
67037;SDS011;53940;53.204;6.590;2022-10-29T00:21:14;2.40;;;0.90;;
67037;SDS011;53940;53.204;6.590;2022-10-29T00:24:16;1.77;;;0.90;;
67037;SDS011;53940;53.204;6.590;2022-10-29T00:27:16;1.92;;;0.70;;
67037;SDS011;53940;53.204;6.590;2022-10-29T00:30:17;2.10;;;0.90;;
67037;SDS011;53940;53.204;6.590;2022-10-29T00:33:17;1.50;;;0.90;;
67037;SDS011;53940;53.204;6.590;2022-10-29T00:36:18;2.60;;;0.95;;
67037;SDS011;53940;53.204;6.590;2022-10-29T00:39:21;2.47;;;0.90;;
67037;SDS011;53940;53.204;6.590;2022-10-29T00:42:21;1.95;;;0.93;;
67037;SDS011;53940;53.204;6.590;2022-10-29T00:45:21;2.50;;;1.08;;
67037;SDS011;53940;53.204;6.590;2022-10-29T00:48:22;2.83;;;1.00;;
67037;SDS011;53940;53.204;6.590;2022-10-29T00:51:24;1.83;;;0.80;;
67037;SDS011;53940;53.204;6.590;2022-10-29T00:54:25;1.88;;;0.77;;
67037;SDS011;53940;53.204;6.590;2022-10-29T00:57:28;1.35;;;0.70;;
67037;SDS011;53940;53.204;6.590;2022-10-29T01:00:34;1.52;;;0.85;;
67037;SDS011;53940;53.204;6.590;2022-10-29T01:03:34;2.13;;;1.13;;
67037;SDS011;53940;53.204;6.590;2022-10-29T01:06:35;2.83;;;1.20;;
67037;SDS011;53940;53.204;6.590;2022-10-29T01:09:36;2.35;;;0.90;;
67037;SDS011;53940;53.204;6.590;2022-10-29T01:12:42;2.70;;;1.00;;
67037;SDS011;53940;53.204;6.590;2022-10-29T01:19:11;1.95;;;1.00;;
67037;SDS011;53940;53.204;6.590;2022-10-29T01:22:18;2.55;;;1.05;;
67037;SDS011;53940;53.204;6.590;2022-10-29T01:32:14;1.63;;;0.70;;
67037;SDS011;53940;53.204;6.590;2022-10-29T01:35:30;2.42;;;1.00;;
67037;SDS011;53940;53.204;6.590;2022-10-29T01:48:31;2.38;;;1.00;;
67037;SDS011;53940;53.204;6.590;2022-10-29T01:51:34;2.88;;;0.90;;
67037;SDS011;53940;53.204;6.590;2022-10-29T01:54:41;1.73;;;0.82;;
67037;SDS011;53940;53.204;6.590;2022-10-29T01:57:43;1.92;;;1.00;;
67037;SDS011;53940;53.204;6.590;2022-10-29T02:07:53;2.47;;;1.00;;
67037;SDS011;53940;53.204;6.590;2022-10-29T02:11:14;2.00;;;0.95;;
67037;SDS011;53940;53.204;6.590;2022-10-29T02:14:34;2.45;;;1.02;;
67037;SDS011;53940;53.204;6.590;2022-10-29T02:17:40;2.83;;;0.90;;
67037;SDS011;53940;53.204;6.590;2022-10-29T02:20:41;1.48;;;0.80;;
67037;SDS011;53940;53.204;6.590;2022-10-29T02:23:43;1.60;;;1.10;;
67037;SDS011;53940;53.204;6.590;2022-10-29T02:26:44;2.40;;;1.00;;
67037;SDS011;53940;53.204;6.590;2022-10-29T02:29:44;2.85;;;1.08;;
67037;SDS011;53940;53.204;6.590;2022-10-29T02:32:44;2.78;;;1.13;;
67037;SDS011;53940;53.204;6.590;2022-10-29T02:35:45;1.75;;;0.85;;
67037;SDS011;53940;53.204;6.590;2022-10-29T02:38:45;1.58;;;0.88;;
67037;SDS011;53940;53.204;6.590;2022-10-29T02:41:45;1.90;;;0.98;;
67037;SDS011;53940;53.204;6.590;2022-10-29T02:44:46;2.53;;;1.00;;
67037;SDS011;53940;53.204;6.590;2022-10-29T02:47:46;2.10;;;0.90;;
67037;SDS011;53940;53.204;6.590;2022-10-29T02:50:46;2.10;;;0.98;;
67037;SDS011;53940;53.204;6.590;2022-10-29T02:53:47;2.38;;;0.82;;
67037;SDS011;53940;53.204;6.590;2022-10-29T02:56:47;2.35;;;0.90;;
67037;SDS011;53940;53.204;6.590;2022-10-29T02:59:47;1.52;;;0.80;;
67037;SDS011;53940;53.204;6.590;2022-10-29T03:02:51;1.75;;;0.80;;
67037;SDS011;53940;53.204;6.590;2022-10-29T03:05:51;2.10;;;0.80;;
67037;SDS011;53940;53.204;6.590;2022-10-29T03:08:52;2.88;;;0.88;;
67037;SDS011;53940;53.204;6.590;2022-10-29T03:11:52;1.77;;;0.88;;
67037;SDS011;53940;53.204;6.590;2022-10-29T03:14:52;2.05;;;1.02;;
67037;SDS011;53940;53.204;6.590;2022-10-29T03:17:53;1.70;;;0.90;;
67037;SDS011;53940;53.204;6.590;2022-10-29T03:20:53;2.00;;;0.95;;
67037;SDS011;53940;53.204;6.590;2022-10-29T03:23:54;1.95;;;0.68;;
67037;SDS011;53940;53.204;6.590;2022-10-29T03:26:54;1.85;;;0.80;;
67037;SDS011;53940;53.204;6.590;2022-10-29T03:29:54;1.63;;;0.80;;
67037;SDS011;53940;53.204;6.590;2022-10-29T03:32:55;1.45;;;0.80;;
67037;SDS011;53940;53.204;6.590;2022-10-29T03:35:59;2.22;;;0.80;;
67037;SDS011;53940;53.204;6.590;2022-10-29T03:39:00;1.67;;;0.90;;
67037;SDS011;53940;53.204;6.590;2022-10-29T03:42:01;1.65;;;0.90;;
67037;SDS011;53940;53.204;6.590;2022-10-29T03:45:03;1.30;;;0.70;;
67037;SDS011;53940;53.204;6.590;2022-10-29T03:48:03;1.30;;;0.75;;
67037;SDS011;53940;53.204;6.590;2022-10-29T03:51:04;2.03;;;0.90;;
67037;SDS011;53940;53.204;6.590;2022-10-29T03:54:06;1.33;;;0.80;;
67037;SDS011;53940;53.204;6.590;2022-10-29T03:57:06;2.00;;;0.98;;
67037;SDS011;53940;53.204;6.590;2022-10-29T04:00:07;1.88;;;0.70;;
67037;SDS011;53940;53.204;6.590;2022-10-29T04:03:08;1.30;;;0.70;;
67037;SDS011;53940;53.204;6.590;2022-10-29T04:06:10;1.42;;;0.70;;
67037;SDS011;53940;53.204;6.590;2022-10-29T04:09:12;2.03;;;0.82;;
67037;SDS011;53940;53.204;6.590;2022-10-29T04:12:12;1.27;;;0.73;;
67037;SDS011;53940;53.204;6.590;2022-10-29T04:15:12;1.40;;;0.82;;
67037;SDS011;53940;53.204;6.590;2022-10-29T04:18:13;1.90;;;1.00;;
67037;SDS011;53940;53.204;6.590;2022-10-29T04:21:13;1.08;;;0.68;;
67037;SDS011;53940;53.204;6.590;2022-10-29T04:24:14;1.27;;;0.70;;
67037;SDS011;53940;53.204;6.590;2022-10-29T04:27:15;1.00;;;0.50;;
67037;SDS011;53940;53.204;6.590;2022-10-29T04:30:15;1.45;;;0.70;;
67037;SDS011;53940;53.204;6.590;2022-10-29T04:33:16;1.23;;;0.60;;
67037;SDS011;53940;53.204;6.590;2022-10-29T04:36:16;1.38;;;0.80;;
67037;SDS011;53940;53.204;6.590;2022-10-29T04:39:17;2.17;;;0.70;;
67037;SDS011;53940;53.204;6.590;2022-10-29T04:42:17;1.88;;;0.95;;
67037;SDS011;53940;53.204;6.590;2022-10-29T04:45:17;1.17;;;0.73;;
67037;SDS011;53940;53.204;6.590;2022-10-29T04:48:18;1.25;;;0.60;;
67037;SDS011;53940;53.204;6.590;2022-10-29T04:51:20;1.23;;;0.68;;
67037;SDS011;53940;53.204;6.590;2022-10-29T04:54:21;1.67;;;0.82;;
67037;SDS011;53940;53.204;6.590;2022-10-29T04:57:22;0.93;;;0.60;;
67037;SDS011;53940;53.204;6.590;2022-10-29T05:00:22;1.02;;;0.60;;
67037;SDS011;53940;53.204;6.590;2022-10-29T05:03:23;1.52;;;0.73;;
67037;SDS011;53940;53.204;6.590;2022-10-29T05:06:23;1.05;;;0.65;;
67037;SDS011;53940;53.204;6.590;2022-10-29T05:09:23;1.45;;;0.60;;
67037;SDS011;53940;53.204;6.590;2022-10-29T05:12:24;1.20;;;0.60;;
67037;SDS011;53940;53.204;6.590;2022-10-29T05:15:24;1.35;;;0.93;;
67037;SDS011;53940;53.204;6.590;2022-10-29T05:18:25;1.30;;;0.70;;
67037;SDS011;53940;53.204;6.590;2022-10-29T05:21:25;1.65;;;0.80;;
67037;SDS011;53940;53.204;6.590;2022-10-29T05:24:26;1.75;;;0.63;;
67037;SDS011;53940;53.204;6.590;2022-10-29T05:27:26;1.45;;;0.70;;
67037;SDS011;53940;53.204;6.590;2022-10-29T05:30:26;1.40;;;0.70;;
67037;SDS011;53940;53.204;6.590;2022-10-29T05:33:27;1.20;;;0.50;;
67037;SDS011;53940;53.204;6.590;2022-10-29T05:36:27;0.98;;;0.60;;
67037;SDS011;53940;53.204;6.590;2022-10-29T05:39:28;0.93;;;0.60;;
67037;SDS011;53940;53.204;6.590;2022-10-29T05:42:28;1.30;;;0.70;;
67037;SDS011;53940;53.204;6.590;2022-10-29T05:45:28;1.00;;;0.60;;
67037;SDS011;53940;53.204;6.590;2022-10-29T05:48:29;1.45;;;0.70;;
67037;SDS011;53940;53.204;6.590;2022-10-29T05:51:29;1.23;;;0.60;;
67037;SDS011;53940;53.204;6.590;2022-10-29T05:54:30;1.05;;;0.60;;
67037;SDS011;53940;53.204;6.590;2022-10-29T05:57:30;1.08;;;0.60;;
67037;SDS011;53940;53.204;6.590;2022-10-29T06:00:32;1.05;;;0.50;;
67037;SDS011;53940;53.204;6.590;2022-10-29T06:03:34;1.02;;;0.52;;
67037;SDS011;53940;53.204;6.590;2022-10-29T06:06:35;1.05;;;0.60;;
67037;SDS011;53940;53.204;6.590;2022-10-29T06:09:35;2.00;;;0.50;;
67037;SDS011;53940;53.204;6.590;2022-10-29T06:12:36;0.68;;;0.60;;
67037;SDS011;53940;53.204;6.590;2022-10-29T06:15:36;1.00;;;0.55;;
67037;SDS011;53940;53.204;6.590;2022-10-29T06:18:36;0.80;;;0.50;;
67037;SDS011;53940;53.204;6.590;2022-10-29T06:21:37;1.08;;;0.50;;
67037;SDS011;53940;53.204;6.590;2022-10-29T06:24:37;0.77;;;0.50;;
67037;SDS011;53940;53.204;6.590;2022-10-29T06:27:37;1.25;;;0.70;;
67037;SDS011;53940;53.204;6.590;2022-10-29T06:30:37;1.23;;;0.68;;
67037;SDS011;53940;53.204;6.590;2022-10-29T06:33:38;1.08;;;0.50;;
67037;SDS011;53940;53.204;6.590;2022-10-29T06:36:38;0.88;;;0.57;;
67037;SDS011;53940;53.204;6.590;2022-10-29T06:39:39;1.10;;;0.50;;
67037;SDS011;53940;53.204;6.590;2022-10-29T06:42:39;0.70;;;0.40;;
67037;SDS011;53940;53.204;6.590;2022-10-29T06:45:39;0.95;;;0.52;;
67037;SDS011;53940;53.204;6.590;2022-10-29T06:48:40;0.60;;;0.40;;
67037;SDS011;53940;53.204;6.590;2022-10-29T06:51:40;1.02;;;0.60;;
67037;SDS011;53940;53.204;6.590;2022-10-29T06:54:40;0.77;;;0.47;;
67037;SDS011;53940;53.204;6.590;2022-10-29T06:57:41;0.75;;;0.50;;
67037;SDS011;53940;53.204;6.590;2022-10-29T07:00:41;0.77;;;0.43;;
67037;SDS011;53940;53.204;6.590;2022-10-29T07:03:43;0.95;;;0.40;;
67037;SDS011;53940;53.204;6.590;2022-10-29T07:06:43;2.10;;;0.50;;
67037;SDS011;53940;53.204;6.590;2022-10-29T07:09:43;1.40;;;0.45;;
67037;SDS011;53940;53.204;6.590;2022-10-29T07:12:44;1.48;;;0.70;;
67037;SDS011;53940;53.204;6.590;2022-10-29T07:15:44;1.20;;;0.60;;
67037;SDS011;53940;53.204;6.590;2022-10-29T07:18:44;1.40;;;0.50;;
67037;SDS011;53940;53.204;6.590;2022-10-29T07:21:45;1.10;;;0.50;;
67037;SDS011;53940;53.204;6.590;2022-10-29T07:24:45;0.77;;;0.40;;
67037;SDS011;53940;53.204;6.590;2022-10-29T07:27:45;0.90;;;0.50;;
67037;SDS011;53940;53.204;6.590;2022-10-29T07:30:46;1.00;;;0.50;;
67037;SDS011;53940;53.204;6.590;2022-10-29T07:33:50;1.48;;;0.63;;
67037;SDS011;53940;53.204;6.590;2022-10-29T07:36:50;0.70;;;0.40;;
67037;SDS011;53940;53.204;6.590;2022-10-29T07:39:50;1.10;;;0.52;;
67037;SDS011;53940;53.204;6.590;2022-10-29T07:42:51;1.67;;;0.57;;
67037;SDS011;53940;53.204;6.590;2022-10-29T07:45:52;1.15;;;0.40;;
67037;SDS011;53940;53.204;6.590;2022-10-29T07:48:52;1.83;;;0.50;;
67037;SDS011;53940;53.204;6.590;2022-10-29T07:51:53;1.13;;;0.63;;
67037;SDS011;53940;53.204;6.590;2022-10-29T07:54:53;0.60;;;0.47;;
67037;SDS011;53940;53.204;6.590;2022-10-29T07:57:54;0.93;;;0.40;;
67037;SDS011;53940;53.204;6.590;2022-10-29T08:01:00;0.60;;;0.37;;
67037;SDS011;53940;53.204;6.590;2022-10-29T08:04:00;0.98;;;0.50;;
67037;SDS011;53940;53.204;6.590;2022-10-29T08:07:01;0.90;;;0.40;;
67037;SDS011;53940;53.204;6.590;2022-10-29T08:10:02;1.08;;;0.43;;
67037;SDS011;53940;53.204;6.590;2022-10-29T08:13:03;1.00;;;0.50;;
67037;SDS011;53940;53.204;6.590;2022-10-29T08:16:05;1.05;;;0.50;;
67037;SDS011;53940;53.204;6.590;2022-10-29T08:19:05;1.23;;;0.63;;
67037;SDS011;53940;53.204;6.590;2022-10-29T08:22:06;1.20;;;0.60;;
67037;SDS011;53940;53.204;6.590;2022-10-29T08:25:06;1.63;;;0.65;;
67037;SDS011;53940;53.204;6.590;2022-10-29T08:28:08;0.85;;;0.50;;
67037;SDS011;53940;53.204;6.590;2022-10-29T08:31:10;0.63;;;0.40;;
67037;SDS011;53940;53.204;6.590;2022-10-29T08:34:10;0.85;;;0.50;;
67037;SDS011;53940;53.204;6.590;2022-10-29T08:37:11;1.55;;;0.50;;
67037;SDS011;53940;53.204;6.590;2022-10-29T08:40:12;0.52;;;0.47;;
67037;SDS011;53940;53.204;6.590;2022-10-29T08:44:27;1.25;;;0.60;;
67037;SDS011;53940;53.204;6.590;2022-10-29T08:47:12;0.88;;;0.40;;
67037;SDS011;53940;53.204;6.590;2022-10-29T08:50:26;0.80;;;0.40;;
67037;SDS011;53940;53.204;6.590;2022-10-29T08:53:33;1.20;;;0.40;;
67037;SDS011;53940;53.204;6.590;2022-10-29T08:56:39;0.77;;;0.45;;
67037;SDS011;53940;53.204;6.590;2022-10-29T09:00:03;0.70;;;0.40;;
67037;SDS011;53940;53.204;6.590;2022-10-29T09:03:14;0.70;;;0.50;;
67037;SDS011;53940;53.204;6.590;2022-10-29T09:09:55;1.05;;;0.60;;
67037;SDS011;53940;53.204;6.590;2022-10-29T09:26:32;0.68;;;0.40;;
67037;SDS011;53940;53.204;6.590;2022-10-29T09:33:19;0.83;;;0.43;;
67037;SDS011;53940;53.204;6.590;2022-10-29T09:36:22;0.70;;;0.40;;
67037;SDS011;53940;53.204;6.590;2022-10-29T09:39:34;1.10;;;0.60;;
67037;SDS011;53940;53.204;6.590;2022-10-29T09:42:38;2.13;;;0.68;;
67037;SDS011;53940;53.204;6.590;2022-10-29T09:45:44;1.23;;;0.60;;
67037;SDS011;53940;53.204;6.590;2022-10-29T09:52:25;0.98;;;0.50;;
67037;SDS011;53940;53.204;6.590;2022-10-29T09:55:39;1.20;;;0.60;;
67037;SDS011;53940;53.204;6.590;2022-10-29T09:58:43;1.10;;;0.60;;
67037;SDS011;53940;53.204;6.590;2022-10-29T10:01:49;1.90;;;0.80;;
67037;SDS011;53940;53.204;6.590;2022-10-29T10:04:50;1.25;;;0.55;;
67037;SDS011;53940;53.204;6.590;2022-10-29T10:08:04;0.95;;;0.50;;
67037;SDS011;53940;53.204;6.590;2022-10-29T10:11:14;0.75;;;0.50;;
67037;SDS011;53940;53.204;6.590;2022-10-29T10:14:19;1.30;;;0.53;;
67037;SDS011;53940;53.204;6.590;2022-10-29T10:17:21;0.95;;;0.60;;
67037;SDS011;53940;53.204;6.590;2022-10-29T10:20:26;0.95;;;0.60;;
67037;SDS011;53940;53.204;6.590;2022-10-29T10:23:48;0.82;;;0.50;;
67037;SDS011;53940;53.204;6.590;2022-10-29T10:26:52;1.85;;;0.50;;
67037;SDS011;53940;53.204;6.590;2022-10-29T10:30:14;0.57;;;0.40;;
67037;SDS011;53940;53.204;6.590;2022-10-29T10:33:22;1.10;;;0.60;;
67037;SDS011;53940;53.204;6.590;2022-10-29T10:36:24;0.80;;;0.40;;
67037;SDS011;53940;53.204;6.590;2022-10-29T10:39:29;0.68;;;0.40;;
67037;SDS011;53940;53.204;6.590;2022-10-29T10:42:34;0.73;;;0.50;;
67037;SDS011;53940;53.204;6.590;2022-10-29T10:45:38;1.25;;;0.52;;
67037;SDS011;53940;53.204;6.590;2022-10-29T10:48:41;1.20;;;0.43;;
67037;SDS011;53940;53.204;6.590;2022-10-29T10:51:42;1.13;;;0.60;;
67037;SDS011;53940;53.204;6.590;2022-10-29T10:54:53;0.68;;;0.50;;
67037;SDS011;53940;53.204;6.590;2022-10-29T11:01:05;0.85;;;0.40;;
67037;SDS011;53940;53.204;6.590;2022-10-29T11:04:16;1.65;;;0.50;;
67037;SDS011;53940;53.204;6.590;2022-10-29T11:07:23;1.35;;;0.55;;
67037;SDS011;53940;53.204;6.590;2022-10-29T11:10:32;1.17;;;0.75;;
67037;SDS011;53940;53.204;6.590;2022-10-29T11:13:39;0.85;;;0.50;;
67037;SDS011;53940;53.204;6.590;2022-10-29T11:16:45;2.63;;;0.60;;
67037;SDS011;53940;53.204;6.590;2022-10-29T11:19:54;1.27;;;0.70;;
67037;SDS011;53940;53.204;6.590;2022-10-29T11:23:19;1.92;;;0.68;;
67037;SDS011;53940;53.204;6.590;2022-10-29T11:39:33;3.92;;;1.50;;
67037;SDS011;53940;53.204;6.590;2022-10-29T11:42:44;3.92;;;1.85;;
67037;SDS011;53940;53.204;6.590;2022-10-29T11:56:13;4.72;;;1.80;;
67037;SDS011;53940;53.204;6.590;2022-10-29T12:13:02;4.67;;;1.97;;
67037;SDS011;53940;53.204;6.590;2022-10-29T12:16:56;3.90;;;1.70;;
67037;SDS011;53940;53.204;6.590;2022-10-29T12:26:45;4.28;;;1.58;;
67037;SDS011;53940;53.204;6.590;2022-10-29T12:32:58;3.30;;;1.67;;
67037;SDS011;53940;53.204;6.590;2022-10-29T12:36:07;2.95;;;1.50;;
67037;SDS011;53940;53.204;6.590;2022-10-29T12:39:25;4.20;;;1.45;;
67037;SDS011;53940;53.204;6.590;2022-10-29T12:42:29;3.75;;;1.70;;
67037;SDS011;53940;53.204;6.590;2022-10-29T12:45:35;3.88;;;1.48;;
67037;SDS011;53940;53.204;6.590;2022-10-29T12:49:09;3.90;;;1.73;;
67037;SDS011;53940;53.204;6.590;2022-10-29T12:52:19;3.00;;;1.40;;
67037;SDS011;53940;53.204;6.590;2022-10-29T12:55:31;2.30;;;1.25;;
67037;SDS011;53940;53.204;6.590;2022-10-29T12:58:47;4.90;;;1.50;;
67037;SDS011;53940;53.204;6.590;2022-10-29T13:01:53;3.38;;;1.40;;
67037;SDS011;53940;53.204;6.590;2022-10-29T13:08:10;4.03;;;1.42;;
67037;SDS011;53940;53.204;6.590;2022-10-29T13:11:21;3.85;;;1.38;;
67037;SDS011;53940;53.204;6.590;2022-10-29T13:17:44;3.47;;;1.33;;
67037;SDS011;53940;53.204;6.590;2022-10-29T13:20:50;3.42;;;1.30;;
67037;SDS011;53940;53.204;6.590;2022-10-29T13:24:04;3.17;;;1.30;;
67037;SDS011;53940;53.204;6.590;2022-10-29T13:30:16;3.13;;;1.17;;
67037;SDS011;53940;53.204;6.590;2022-10-29T13:39:28;2.60;;;1.30;;
67037;SDS011;53940;53.204;6.590;2022-10-29T13:42:28;2.95;;;1.30;;
67037;SDS011;53940;53.204;6.590;2022-10-29T13:45:29;2.60;;;1.20;;
67037;SDS011;53940;53.204;6.590;2022-10-29T13:48:34;2.35;;;1.17;;
67037;SDS011;53940;53.204;6.590;2022-10-29T13:51:39;3.30;;;1.23;;
67037;SDS011;53940;53.204;6.590;2022-10-29T13:54:48;2.30;;;1.00;;
67037;SDS011;53940;53.204;6.590;2022-10-29T13:58:01;2.63;;;1.23;;
67037;SDS011;53940;53.204;6.590;2022-10-29T14:01:10;3.05;;;1.13;;
67037;SDS011;53940;53.204;6.590;2022-10-29T14:04:23;2.92;;;1.20;;
67037;SDS011;53940;53.204;6.590;2022-10-29T14:07:32;2.95;;;0.95;;
67037;SDS011;53940;53.204;6.590;2022-10-29T14:13:45;3.42;;;1.20;;
67037;SDS011;53940;53.204;6.590;2022-10-29T14:16:48;2.78;;;1.20;;
67037;SDS011;53940;53.204;6.590;2022-10-29T14:19:49;2.97;;;1.08;;
67037;SDS011;53940;53.204;6.590;2022-10-29T14:22:50;3.05;;;1.23;;
67037;SDS011;53940;53.204;6.590;2022-10-29T14:25:55;2.30;;;0.98;;
67037;SDS011;53940;53.204;6.590;2022-10-29T14:32:35;1.92;;;0.90;;
67037;SDS011;53940;53.204;6.590;2022-10-29T14:35:37;2.95;;;1.05;;
67037;SDS011;53940;53.204;6.590;2022-10-29T14:38:46;2.28;;;0.90;;
67037;SDS011;53940;53.204;6.590;2022-10-29T14:41:53;1.85;;;0.90;;
67037;SDS011;53940;53.204;6.590;2022-10-29T14:44:55;2.25;;;1.10;;
67037;SDS011;53940;53.204;6.590;2022-10-29T14:48:00;2.10;;;1.15;;
67037;SDS011;53940;53.204;6.590;2022-10-29T14:51:09;2.25;;;0.95;;
67037;SDS011;53940;53.204;6.590;2022-10-29T14:54:22;3.65;;;0.95;;
67037;SDS011;53940;53.204;6.590;2022-10-29T14:57:37;2.88;;;1.20;;
67037;SDS011;53940;53.204;6.590;2022-10-29T15:03:56;2.28;;;1.00;;
67037;SDS011;53940;53.204;6.590;2022-10-29T15:10:22;1.95;;;0.88;;
67037;SDS011;53940;53.204;6.590;2022-10-29T15:16:26;2.15;;;0.88;;
67037;SDS011;53940;53.204;6.590;2022-10-29T15:19:28;1.90;;;1.00;;
67037;SDS011;53940;53.204;6.590;2022-10-29T15:22:32;2.70;;;0.90;;
67037;SDS011;53940;53.204;6.590;2022-10-29T15:25:35;1.65;;;0.82;;
67037;SDS011;53940;53.204;6.590;2022-10-29T15:28:39;2.05;;;1.05;;
67037;SDS011;53940;53.204;6.590;2022-10-29T15:31:44;2.08;;;1.00;;
67037;SDS011;53940;53.204;6.590;2022-10-29T15:34:46;1.80;;;0.75;;
67037;SDS011;53940;53.204;6.590;2022-10-29T15:37:47;3.00;;;0.90;;
67037;SDS011;53940;53.204;6.590;2022-10-29T15:40:52;1.92;;;0.90;;
67037;SDS011;53940;53.204;6.590;2022-10-29T15:44:27;2.35;;;0.80;;
67037;SDS011;53940;53.204;6.590;2022-10-29T15:47:30;1.95;;;0.90;;
67037;SDS011;53940;53.204;6.590;2022-10-29T15:50:37;1.67;;;0.80;;
67037;SDS011;53940;53.204;6.590;2022-10-29T15:53:39;1.73;;;0.85;;
67037;SDS011;53940;53.204;6.590;2022-10-29T15:56:40;1.80;;;0.90;;
67037;SDS011;53940;53.204;6.590;2022-10-29T15:59:40;1.73;;;0.73;;
67037;SDS011;53940;53.204;6.590;2022-10-29T16:02:41;2.00;;;0.90;;
67037;SDS011;53940;53.204;6.590;2022-10-29T16:05:42;1.75;;;0.82;;
67037;SDS011;53940;53.204;6.590;2022-10-29T16:08:48;1.67;;;0.73;;
67037;SDS011;53940;53.204;6.590;2022-10-29T16:11:51;2.78;;;1.00;;
67037;SDS011;53940;53.204;6.590;2022-10-29T16:14:51;1.60;;;0.90;;
67037;SDS011;53940;53.204;6.590;2022-10-29T16:17:52;2.00;;;0.80;;
67037;SDS011;53940;53.204;6.590;2022-10-29T16:20:56;1.63;;;0.88;;
67037;SDS011;53940;53.204;6.590;2022-10-29T16:23:58;1.50;;;0.75;;
67037;SDS011;53940;53.204;6.590;2022-10-29T16:26:58;1.83;;;1.00;;
67037;SDS011;53940;53.204;6.590;2022-10-29T16:29:58;2.35;;;1.30;;
67037;SDS011;53940;53.204;6.590;2022-10-29T16:32:59;6.68;;;1.50;;
67037;SDS011;53940;53.204;6.590;2022-10-29T16:36:00;13.23;;;6.47;;
67037;SDS011;53940;53.204;6.590;2022-10-29T16:39:00;12.38;;;3.78;;
67037;SDS011;53940;53.204;6.590;2022-10-29T16:42:00;8.15;;;3.60;;
67037;SDS011;53940;53.204;6.590;2022-10-29T16:45:01;11.77;;;4.53;;
67037;SDS011;53940;53.204;6.590;2022-10-29T16:48:02;14.05;;;6.10;;
67037;SDS011;53940;53.204;6.590;2022-10-29T16:51:03;13.32;;;5.85;;
67037;SDS011;53940;53.204;6.590;2022-10-29T16:54:03;13.55;;;6.50;;
67037;SDS011;53940;53.204;6.590;2022-10-29T16:57:04;10.95;;;6.50;;
67037;SDS011;53940;53.204;6.590;2022-10-29T17:00:05;12.40;;;6.20;;
67037;SDS011;53940;53.204;6.590;2022-10-29T17:03:07;10.95;;;6.45;;
67037;SDS011;53940;53.204;6.590;2022-10-29T17:06:09;13.85;;;6.05;;
67037;SDS011;53940;53.204;6.590;2022-10-29T17:09:10;11.00;;;6.18;;
67037;SDS011;53940;53.204;6.590;2022-10-29T17:12:11;11.85;;;6.90;;
67037;SDS011;53940;53.204;6.590;2022-10-29T17:15:11;12.50;;;6.60;;
67037;SDS011;53940;53.204;6.590;2022-10-29T17:18:12;10.80;;;6.18;;
67037;SDS011;53940;53.204;6.590;2022-10-29T17:21:12;13.55;;;6.13;;
67037;SDS011;53940;53.204;6.590;2022-10-29T17:24:13;12.05;;;6.05;;
67037;SDS011;53940;53.204;6.590;2022-10-29T17:27:13;13.50;;;5.68;;
67037;SDS011;53940;53.204;6.590;2022-10-29T17:30:14;13.05;;;6.03;;
67037;SDS011;53940;53.204;6.590;2022-10-29T17:33:14;11.02;;;5.82;;
67037;SDS011;53940;53.204;6.590;2022-10-29T17:36:15;9.80;;;5.60;;
67037;SDS011;53940;53.204;6.590;2022-10-29T17:39:17;10.45;;;5.88;;
67037;SDS011;53940;53.204;6.590;2022-10-29T17:42:18;10.30;;;6.15;;
67037;SDS011;53940;53.204;6.590;2022-10-29T17:45:19;10.73;;;5.30;;
67037;SDS011;53940;53.204;6.590;2022-10-29T17:48:21;8.60;;;5.40;;
67037;SDS011;53940;53.204;6.590;2022-10-29T17:51:22;11.15;;;5.63;;
67037;SDS011;53940;53.204;6.590;2022-10-29T17:54:23;9.70;;;5.50;;
67037;SDS011;53940;53.204;6.590;2022-10-29T17:57:23;10.15;;;5.80;;
67037;SDS011;53940;53.204;6.590;2022-10-29T18:00:24;10.77;;;5.57;;
67037;SDS011;53940;53.204;6.590;2022-10-29T18:03:24;12.20;;;5.90;;
67037;SDS011;53940;53.204;6.590;2022-10-29T18:06:25;10.50;;;5.65;;
67037;SDS011;53940;53.204;6.590;2022-10-29T18:09:26;8.77;;;5.20;;
67037;SDS011;53940;53.204;6.590;2022-10-29T18:12:26;9.45;;;5.05;;
67037;SDS011;53940;53.204;6.590;2022-10-29T18:15:26;9.63;;;5.43;;
67037;SDS011;53940;53.204;6.590;2022-10-29T18:18:27;8.55;;;5.35;;
67037;SDS011;53940;53.204;6.590;2022-10-29T18:21:28;9.38;;;4.72;;
67037;SDS011;53940;53.204;6.590;2022-10-29T18:24:29;10.63;;;5.47;;
67037;SDS011;53940;53.204;6.590;2022-10-29T18:27:29;8.65;;;4.97;;
67037;SDS011;53940;53.204;6.590;2022-10-29T18:30:30;10.20;;;4.95;;
67037;SDS011;53940;53.204;6.590;2022-10-29T18:33:30;8.57;;;4.93;;
67037;SDS011;53940;53.204;6.590;2022-10-29T18:36:31;8.85;;;5.53;;
67037;SDS011;53940;53.204;6.590;2022-10-29T18:39:32;9.68;;;5.25;;
67037;SDS011;53940;53.204;6.590;2022-10-29T18:42:32;8.65;;;4.97;;
67037;SDS011;53940;53.204;6.590;2022-10-29T18:45:32;10.63;;;5.10;;
67037;SDS011;53940;53.204;6.590;2022-10-29T18:48:37;8.50;;;5.38;;
67037;SDS011;53940;53.204;6.590;2022-10-29T18:51:39;9.50;;;5.18;;
67037;SDS011;53940;53.204;6.590;2022-10-29T18:54:39;9.35;;;4.55;;
67037;SDS011;53940;53.204;6.590;2022-10-29T18:57:39;8.40;;;5.00;;
67037;SDS011;53940;53.204;6.590;2022-10-29T19:00:40;10.43;;;4.60;;
67037;SDS011;53940;53.204;6.590;2022-10-29T19:03:40;7.10;;;4.40;;
67037;SDS011;53940;53.204;6.590;2022-10-29T19:06:41;10.10;;;4.90;;
67037;SDS011;53940;53.204;6.590;2022-10-29T19:09:42;7.65;;;4.63;;
67037;SDS011;53940;53.204;6.590;2022-10-29T19:12:42;7.38;;;4.50;;
67037;SDS011;53940;53.204;6.590;2022-10-29T19:15:42;8.45;;;4.72;;
67037;SDS011;53940;53.204;6.590;2022-10-29T19:18:42;7.18;;;4.20;;
67037;SDS011;53940;53.204;6.590;2022-10-29T19:21:43;8.15;;;4.40;;
67037;SDS011;53940;53.204;6.590;2022-10-29T19:24:43;7.20;;;4.30;;
67037;SDS011;53940;53.204;6.590;2022-10-29T19:27:43;7.65;;;4.72;;
67037;SDS011;53940;53.204;6.590;2022-10-29T19:30:44;6.75;;;3.97;;
67037;SDS011;53940;53.204;6.590;2022-10-29T19:33:48;7.60;;;4.22;;
67037;SDS011;53940;53.204;6.590;2022-10-29T19:36:50;6.22;;;3.40;;
67037;SDS011;53940;53.204;6.590;2022-10-29T19:39:50;6.80;;;3.75;;
67037;SDS011;53940;53.204;6.590;2022-10-29T19:42:50;6.10;;;3.78;;
67037;SDS011;53940;53.204;6.590;2022-10-29T19:45:51;6.03;;;4.28;;
67037;SDS011;53940;53.204;6.590;2022-10-29T19:48:53;6.60;;;3.58;;
67037;SDS011;53940;53.204;6.590;2022-10-29T19:51:54;6.40;;;3.55;;
67037;SDS011;53940;53.204;6.590;2022-10-29T19:54:56;7.53;;;4.45;;
67037;SDS011;53940;53.204;6.590;2022-10-29T19:57:56;5.57;;;3.80;;
67037;SDS011;53940;53.204;6.590;2022-10-29T20:01:01;6.75;;;3.65;;
67037;SDS011;53940;53.204;6.590;2022-10-29T20:04:06;5.85;;;3.78;;
67037;SDS011;53940;53.204;6.590;2022-10-29T20:07:07;6.47;;;3.55;;
67037;SDS011;53940;53.204;6.590;2022-10-29T20:10:07;5.65;;;3.53;;
67037;SDS011;53940;53.204;6.590;2022-10-29T20:13:07;6.20;;;4.00;;
67037;SDS011;53940;53.204;6.590;2022-10-29T20:16:13;6.07;;;3.50;;
67037;SDS011;53940;53.204;6.590;2022-10-29T20:19:16;5.93;;;3.47;;
67037;SDS011;53940;53.204;6.590;2022-10-29T20:22:16;5.55;;;3.33;;
67037;SDS011;53940;53.204;6.590;2022-10-29T20:25:17;5.30;;;3.20;;
67037;SDS011;53940;53.204;6.590;2022-10-29T20:28:17;7.07;;;3.67;;
67037;SDS011;53940;53.204;6.590;2022-10-29T20:34:18;6.10;;;3.88;;
67037;SDS011;53940;53.204;6.590;2022-10-29T20:37:18;5.43;;;3.63;;